JST594 YMML-YSSY
Flight info
| Callsign | JST594 |
|---|---|
| Flight time | 1h 4m |
| Altitude | 31000 |
| Route | DOSEL2/27 DOSEL Y59 RIVET RIVET4 |
| Aircraft | A320/M-VGDW/C |
Departure
| Time | 2026-05-08 06:52 |
|---|---|
| Airport | Melbourne Airport (YMML) |
Arrival
| Time | 2026-05-08 07:57 |
|---|---|
| Airport | Sydney Kingsford Smith International Airport (YSSY) |
| Time | Latitude | Longitude | Altitude | Speed | Heading |
|---|---|---|---|---|---|
| 2026-05-08 06:21 | -37.67132 | 144.84591 | 362 ft | 0 kts | 353° |
| 2026-05-08 06:40 | -37.67142 | 144.84592 | 363 ft | 2 kts | 353° |
| 2026-05-08 06:40 | -37.67154 | 144.84594 | 358 ft | 2 kts | 353° |
| 2026-05-08 06:41 | -37.67165 | 144.84596 | 361 ft | 2 kts | 353° |
| 2026-05-08 06:41 | -37.67176 | 144.84597 | 359 ft | 2 kts | 350° |
| 2026-05-08 06:41 | -37.67187 | 144.84601 | 362 ft | 2 kts | 332° |
| 2026-05-08 06:41 | -37.67197 | 144.84608 | 361 ft | 2 kts | 306° |
| 2026-05-08 06:42 | -37.67202 | 144.84621 | 361 ft | 2 kts | 282° |
| 2026-05-08 06:42 | -37.67203 | 144.84623 | 361 ft | 0 kts | 278° |
| 2026-05-08 06:44 | -37.67202 | 144.84620 | 361 ft | 1 kts | 278° |
| 2026-05-08 06:44 | -37.67201 | 144.84608 | 362 ft | 2 kts | 277° |
| 2026-05-08 06:44 | -37.67200 | 144.84585 | 360 ft | 3 kts | 272° |
| 2026-05-08 06:44 | -37.67202 | 144.84555 | 359 ft | 4 kts | 264° |
| 2026-05-08 06:45 | -37.67206 | 144.84521 | 360 ft | 4 kts | 261° |
| 2026-05-08 06:45 | -37.67206 | 144.84484 | 362 ft | 4 kts | 283° |
| 2026-05-08 06:45 | -37.67198 | 144.84444 | 364 ft | 5 kts | 279° |
| 2026-05-08 06:45 | -37.67207 | 144.84405 | 365 ft | 5 kts | 251° |
| 2026-05-08 06:46 | -37.67212 | 144.84360 | 365 ft | 6 kts | 268° |
| 2026-05-08 06:46 | -37.67197 | 144.84291 | 369 ft | 10 kts | 308° |
| 2026-05-08 06:46 | -37.67111 | 144.84256 | 373 ft | 16 kts | 359° |
| 2026-05-08 06:46 | -37.66992 | 144.84233 | 371 ft | 18 kts | 350° |
| 2026-05-08 06:47 | -37.66871 | 144.84207 | 374 ft | 16 kts | 351° |
| 2026-05-08 06:47 | -37.66774 | 144.84194 | 375 ft | 13 kts | 358° |
| 2026-05-08 06:47 | -37.66700 | 144.84242 | 372 ft | 15 kts | 80° |
| 2026-05-08 06:47 | -37.66678 | 144.84404 | 362 ft | 23 kts | 84° |
| 2026-05-08 06:48 | -37.66660 | 144.84607 | 355 ft | 22 kts | 76° |
| 2026-05-08 06:48 | -37.66609 | 144.84785 | 336 ft | 22 kts | 32° |
| 2026-05-08 06:48 | -37.66449 | 144.84780 | 330 ft | 25 kts | 358° |
| 2026-05-08 06:48 | -37.66323 | 144.84783 | 328 ft | 0 kts | 1° |
| 2026-05-08 06:49 | -37.66322 | 144.84783 | 328 ft | 1 kts | 1° |
| 2026-05-08 06:50 | -37.66303 | 144.84783 | 330 ft | 5 kts | 1° |
| 2026-05-08 06:50 | -37.66240 | 144.84770 | 331 ft | 16 kts | 327° |
| 2026-05-08 06:50 | -37.66222 | 144.84724 | 333 ft | 0 kts | 268° |
| 2026-05-08 06:51 | -37.66222 | 144.84723 | 333 ft | 1 kts | 269° |
| 2026-05-08 06:51 | -37.66214 | 144.84576 | 350 ft | 37 kts | 275° |
| 2026-05-08 06:51 | -37.66179 | 144.83871 | 387 ft | 119 kts | 275° |
| 2026-05-08 06:52 | -37.66078 | 144.82594 | 674 ft | 163 kts | 276° |
| 2026-05-08 06:52 | -37.65879 | 144.81091 | 1485 ft | 182 kts | 277° |
| 2026-05-08 06:52 | -37.65666 | 144.79453 | 2327 ft | 194 kts | 271° |
| 2026-05-08 06:52 | -37.65510 | 144.77719 | 3255 ft | 204 kts | 268° |
| 2026-05-08 06:53 | -37.65462 | 144.75855 | 4119 ft | 222 kts | 263° |
| 2026-05-08 06:53 | -37.65473 | 144.73837 | 4976 ft | 245 kts | 264° |
| 2026-05-08 06:53 | -37.65438 | 144.71596 | 5806 ft | 265 kts | 266° |
| 2026-05-08 06:53 | -37.65330 | 144.69204 | 6737 ft | 280 kts | 270° |
| 2026-05-08 06:54 | -37.64713 | 144.66803 | 7775 ft | 298 kts | 296° |
| 2026-05-08 06:54 | -37.63281 | 144.64840 | 8842 ft | 315 kts | 320° |
| 2026-05-08 06:54 | -37.61261 | 144.63624 | 9930 ft | 328 kts | 339° |
| 2026-05-08 06:54 | -37.59027 | 144.62857 | 10898 ft | 338 kts | 343° |
| 2026-05-08 06:55 | -37.56662 | 144.62285 | 11611 ft | 356 kts | 355° |
| 2026-05-08 06:55 | -37.54140 | 144.62661 | 12252 ft | 376 kts | 17° |
| 2026-05-08 06:55 | -37.51793 | 144.64139 | 12886 ft | 387 kts | 38° |
| 2026-05-08 06:55 | -37.49951 | 144.66518 | 13540 ft | 380 kts | 58° |
| 2026-05-08 06:56 | -37.48553 | 144.69370 | 14176 ft | 387 kts | 63° |
| 2026-05-08 06:56 | -37.47211 | 144.72334 | 14768 ft | 389 kts | 65° |
| 2026-05-08 06:56 | -37.46007 | 144.75419 | 15385 ft | 396 kts | 66° |
| 2026-05-08 06:56 | -37.44714 | 144.78525 | 16002 ft | 404 kts | 64° |
| 2026-05-08 06:57 | -37.43330 | 144.81647 | 16633 ft | 411 kts | 63° |
| 2026-05-08 06:57 | -37.41892 | 144.84796 | 17274 ft | 417 kts | 63° |
| 2026-05-08 06:57 | -37.40445 | 144.87936 | 17921 ft | 421 kts | 62° |
| 2026-05-08 06:57 | -37.38976 | 144.91111 | 18578 ft | 419 kts | 62° |
| 2026-05-08 06:58 | -37.37509 | 144.94281 | 19161 ft | 417 kts | 62° |
| 2026-05-08 06:58 | -37.36048 | 144.97439 | 19745 ft | 416 kts | 63° |
| 2026-05-08 06:58 | -37.34597 | 145.00581 | 20353 ft | 415 kts | 63° |
| 2026-05-08 06:58 | -37.33173 | 145.03661 | 20956 ft | 411 kts | 63° |
| 2026-05-08 06:59 | -37.31723 | 145.06796 | 21591 ft | 409 kts | 63° |
| 2026-05-08 06:59 | -37.30307 | 145.09852 | 22225 ft | 408 kts | 63° |
| 2026-05-08 06:59 | -37.28881 | 145.12927 | 22878 ft | 406 kts | 63° |
| 2026-05-08 06:59 | -37.27462 | 145.15987 | 23549 ft | 405 kts | 63° |
| 2026-05-08 07:00 | -37.26046 | 145.19039 | 24163 ft | 402 kts | 63° |
| 2026-05-08 07:00 | -37.24634 | 145.22084 | 24744 ft | 404 kts | 63° |
| 2026-05-08 07:00 | -37.23218 | 145.25133 | 25336 ft | 404 kts | 63° |
| 2026-05-08 07:00 | -37.21819 | 145.28143 | 25936 ft | 404 kts | 63° |
| 2026-05-08 07:01 | -37.20403 | 145.31186 | 26552 ft | 403 kts | 63° |
| 2026-05-08 07:01 | -37.18988 | 145.34223 | 27177 ft | 401 kts | 63° |
| 2026-05-08 07:01 | -37.17577 | 145.37247 | 27820 ft | 399 kts | 63° |
| 2026-05-08 07:01 | -37.16149 | 145.40172 | 28469 ft | 398 kts | 59° |
| 2026-05-08 07:02 | -37.14535 | 145.42975 | 29152 ft | 394 kts | 58° |
| 2026-05-08 07:02 | -37.12938 | 145.45747 | 29839 ft | 389 kts | 58° |
| 2026-05-08 07:02 | -37.11360 | 145.48496 | 30498 ft | 384 kts | 58° |
| 2026-05-08 07:02 | -37.09812 | 145.51196 | 31024 ft | 381 kts | 59° |
| 2026-05-08 07:03 | -37.08253 | 145.53918 | 31207 ft | 389 kts | 59° |
| 2026-05-08 07:03 | -37.06654 | 145.56711 | 31246 ft | 400 kts | 59° |
| 2026-05-08 07:03 | -37.05020 | 145.59561 | 31245 ft | 413 kts | 58° |
| 2026-05-08 07:03 | -37.03317 | 145.62524 | 31243 ft | 425 kts | 58° |
| 2026-05-08 07:04 | -37.01562 | 145.65569 | 31238 ft | 437 kts | 58° |
| 2026-05-08 07:04 | -36.99756 | 145.68699 | 31243 ft | 447 kts | 58° |
| 2026-05-08 07:04 | -36.96112 | 145.74992 | 31238 ft | 446 kts | 58° |
| 2026-05-08 07:05 | -36.92474 | 145.81271 | 31240 ft | 446 kts | 58° |
| 2026-05-08 07:05 | -36.88824 | 145.87565 | 31235 ft | 446 kts | 58° |
| 2026-05-08 07:06 | -36.85197 | 145.93807 | 31235 ft | 446 kts | 58° |
| 2026-05-08 07:06 | -36.81542 | 146.00087 | 31231 ft | 446 kts | 58° |
| 2026-05-08 07:07 | -36.77901 | 146.06331 | 31237 ft | 448 kts | 58° |
| 2026-05-08 07:07 | -36.74214 | 146.12645 | 31225 ft | 450 kts | 58° |
| 2026-05-08 07:08 | -36.70548 | 146.18907 | 31228 ft | 449 kts | 58° |
| 2026-05-08 07:08 | -36.66857 | 146.25202 | 31225 ft | 449 kts | 58° |
| 2026-05-08 07:09 | -36.63165 | 146.31487 | 31232 ft | 449 kts | 57° |
| 2026-05-08 07:09 | -36.59465 | 146.37773 | 31222 ft | 450 kts | 57° |
| 2026-05-08 07:10 | -36.55750 | 146.44078 | 31220 ft | 465 kts | 57° |
| 2026-05-08 07:10 | -36.53812 | 146.47365 | 31219 ft | 476 kts | 57° |
| 2026-05-08 07:10 | -36.51834 | 146.50716 | 31219 ft | 486 kts | 57° |
| 2026-05-08 07:11 | -36.47788 | 146.57548 | 31215 ft | 491 kts | 57° |
| 2026-05-08 07:11 | -36.43732 | 146.64380 | 31212 ft | 491 kts | 57° |
| 2026-05-08 07:12 | -36.39675 | 146.71205 | 31214 ft | 491 kts | 57° |
| 2026-05-08 07:12 | -36.35613 | 146.78027 | 31209 ft | 490 kts | 56° |
| 2026-05-08 07:13 | -36.31544 | 146.84848 | 31225 ft | 492 kts | 56° |
| 2026-05-08 07:13 | -36.27485 | 146.91639 | 31211 ft | 493 kts | 56° |
| 2026-05-08 07:14 | -36.23397 | 146.98460 | 31210 ft | 493 kts | 56° |
| 2026-05-08 07:14 | -36.19309 | 147.05275 | 31211 ft | 492 kts | 56° |
| 2026-05-08 07:15 | -36.15216 | 147.12082 | 31219 ft | 493 kts | 56° |
| 2026-05-08 07:15 | -36.11124 | 147.18870 | 31205 ft | 493 kts | 56° |
| 2026-05-08 07:16 | -36.07014 | 147.25676 | 31202 ft | 493 kts | 56° |
| 2026-05-08 07:16 | -36.02925 | 147.32433 | 31208 ft | 493 kts | 56° |
| 2026-05-08 07:17 | -35.98809 | 147.39222 | 31224 ft | 493 kts | 56° |
| 2026-05-08 07:17 | -35.94679 | 147.46021 | 31212 ft | 495 kts | 56° |
| 2026-05-08 07:18 | -35.90545 | 147.52813 | 31215 ft | 494 kts | 56° |
| 2026-05-08 07:18 | -35.87105 | 147.58454 | 31214 ft | 495 kts | 56° |
| 2026-05-08 07:19 | -35.82291 | 147.66333 | 31232 ft | 495 kts | 56° |
| 2026-05-08 07:19 | -35.78835 | 147.71979 | 31214 ft | 495 kts | 55° |
| 2026-05-08 07:20 | -35.74677 | 147.78758 | 31216 ft | 495 kts | 55° |
| 2026-05-08 07:20 | -35.70515 | 147.85530 | 31222 ft | 495 kts | 55° |
| 2026-05-08 07:21 | -35.66379 | 147.92248 | 31222 ft | 495 kts | 55° |
| 2026-05-08 07:21 | -35.62227 | 147.98978 | 31223 ft | 497 kts | 55° |
| 2026-05-08 07:22 | -35.58049 | 148.05737 | 31220 ft | 496 kts | 55° |
| 2026-05-08 07:22 | -35.53862 | 148.12497 | 31220 ft | 497 kts | 55° |
| 2026-05-08 07:23 | -35.49669 | 148.19256 | 31224 ft | 499 kts | 54° |
| 2026-05-08 07:23 | -35.45452 | 148.26039 | 31221 ft | 499 kts | 54° |
| 2026-05-08 07:24 | -35.41262 | 148.32763 | 31222 ft | 499 kts | 54° |
| 2026-05-08 07:24 | -35.37046 | 148.39516 | 31221 ft | 499 kts | 54° |
| 2026-05-08 07:25 | -35.32813 | 148.46287 | 31222 ft | 500 kts | 54° |
| 2026-05-08 07:26 | -35.26439 | 148.56454 | 31220 ft | 501 kts | 54° |
| 2026-05-08 07:26 | -35.22214 | 148.63174 | 31212 ft | 501 kts | 54° |
| 2026-05-08 07:27 | -35.17944 | 148.69958 | 30997 ft | 504 kts | 54° |
| 2026-05-08 07:27 | -35.15807 | 148.73347 | 30793 ft | 503 kts | 53° |
| 2026-05-08 07:27 | -35.13670 | 148.76731 | 30617 ft | 501 kts | 53° |
| 2026-05-08 07:27 | -35.11536 | 148.80109 | 30425 ft | 500 kts | 53° |
| 2026-05-08 07:28 | -35.09412 | 148.83469 | 30218 ft | 499 kts | 53° |
| 2026-05-08 07:28 | -35.07287 | 148.86825 | 29987 ft | 497 kts | 53° |
| 2026-05-08 07:28 | -35.05173 | 148.90162 | 29746 ft | 497 kts | 53° |
| 2026-05-08 07:28 | -35.03082 | 148.93459 | 29528 ft | 496 kts | 53° |
| 2026-05-08 07:29 | -35.00975 | 148.96777 | 29306 ft | 493 kts | 53° |
| 2026-05-08 07:29 | -34.98871 | 149.00088 | 29085 ft | 492 kts | 53° |
| 2026-05-08 07:29 | -34.96778 | 149.03378 | 28868 ft | 490 kts | 53° |
| 2026-05-08 07:29 | -34.94691 | 149.06656 | 28650 ft | 489 kts | 53° |
| 2026-05-08 07:30 | -34.92612 | 149.09920 | 28450 ft | 487 kts | 53° |
| 2026-05-08 07:30 | -34.90536 | 149.13175 | 28228 ft | 486 kts | 53° |
| 2026-05-08 07:30 | -34.88455 | 149.16435 | 28022 ft | 485 kts | 53° |
| 2026-05-08 07:30 | -34.86389 | 149.19668 | 27803 ft | 482 kts | 53° |
| 2026-05-08 07:31 | -34.84331 | 149.22887 | 27602 ft | 481 kts | 53° |
| 2026-05-08 07:31 | -34.82303 | 149.26054 | 27395 ft | 479 kts | 53° |
| 2026-05-08 07:31 | -34.80257 | 149.29248 | 27182 ft | 477 kts | 53° |
| 2026-05-08 07:31 | -34.78214 | 149.32434 | 26982 ft | 476 kts | 53° |
| 2026-05-08 07:32 | -34.76180 | 149.35603 | 26779 ft | 474 kts | 53° |
| 2026-05-08 07:32 | -34.74199 | 149.38816 | 26557 ft | 473 kts | 58° |
| 2026-05-08 07:32 | -34.72556 | 149.42262 | 26369 ft | 470 kts | 64° |
| 2026-05-08 07:32 | -34.71039 | 149.45772 | 26168 ft | 468 kts | 64° |
| 2026-05-08 07:33 | -34.69521 | 149.49272 | 25964 ft | 467 kts | 64° |
| 2026-05-08 07:33 | -34.68198 | 149.52313 | 25793 ft | 465 kts | 64° |
| 2026-05-08 07:33 | -34.66860 | 149.55379 | 25626 ft | 464 kts | 64° |
| 2026-05-08 07:33 | -34.65350 | 149.58837 | 25422 ft | 462 kts | 64° |
| 2026-05-08 07:34 | -34.63844 | 149.62277 | 25255 ft | 460 kts | 64° |
| 2026-05-08 07:34 | -34.62344 | 149.65700 | 25209 ft | 458 kts | 64° |
| 2026-05-08 07:34 | -34.60840 | 149.69135 | 25148 ft | 462 kts | 64° |
| 2026-05-08 07:34 | -34.59331 | 149.72576 | 24878 ft | 461 kts | 64° |
| 2026-05-08 07:35 | -34.57826 | 149.75999 | 24600 ft | 456 kts | 64° |
| 2026-05-08 07:35 | -34.56351 | 149.79351 | 24318 ft | 453 kts | 64° |
| 2026-05-08 07:35 | -34.54866 | 149.82725 | 24044 ft | 452 kts | 64° |
| 2026-05-08 07:35 | -34.53386 | 149.86084 | 23753 ft | 450 kts | 64° |
| 2026-05-08 07:36 | -34.51909 | 149.89433 | 23449 ft | 448 kts | 64° |
| 2026-05-08 07:36 | -34.50441 | 149.92755 | 23126 ft | 446 kts | 64° |
| 2026-05-08 07:36 | -34.48980 | 149.96060 | 22793 ft | 443 kts | 64° |
| 2026-05-08 07:36 | -34.47543 | 149.99295 | 22482 ft | 441 kts | 64° |
| 2026-05-08 07:37 | -34.46091 | 150.02560 | 22166 ft | 439 kts | 64° |
| 2026-05-08 07:37 | -34.44649 | 150.05818 | 21849 ft | 437 kts | 64° |
| 2026-05-08 07:37 | -34.43218 | 150.09057 | 21532 ft | 434 kts | 64° |
| 2026-05-08 07:37 | -34.41790 | 150.12279 | 21236 ft | 432 kts | 64° |
| 2026-05-08 07:38 | -34.40370 | 150.15480 | 20932 ft | 431 kts | 64° |
| 2026-05-08 07:38 | -34.38952 | 150.18670 | 20637 ft | 429 kts | 64° |
| 2026-05-08 07:38 | -34.37538 | 150.21849 | 20344 ft | 428 kts | 64° |
| 2026-05-08 07:38 | -34.36129 | 150.25010 | 20045 ft | 426 kts | 64° |
| 2026-05-08 07:39 | -34.34726 | 150.28157 | 19754 ft | 424 kts | 64° |
| 2026-05-08 07:39 | -34.33328 | 150.31285 | 19456 ft | 422 kts | 64° |
| 2026-05-08 07:39 | -34.31953 | 150.34361 | 19172 ft | 420 kts | 65° |
| 2026-05-08 07:39 | -34.30560 | 150.37469 | 18890 ft | 418 kts | 64° |
| 2026-05-08 07:40 | -34.29176 | 150.40555 | 18600 ft | 416 kts | 65° |
| 2026-05-08 07:40 | -34.27799 | 150.43631 | 18252 ft | 415 kts | 65° |
| 2026-05-08 07:40 | -34.26432 | 150.46689 | 17897 ft | 412 kts | 64° |
| 2026-05-08 07:40 | -34.25069 | 150.49741 | 17531 ft | 412 kts | 64° |
| 2026-05-08 07:41 | -34.23707 | 150.52788 | 17158 ft | 411 kts | 64° |
| 2026-05-08 07:41 | -34.22352 | 150.55815 | 16787 ft | 408 kts | 64° |
| 2026-05-08 07:41 | -34.21006 | 150.58819 | 16292 ft | 404 kts | 64° |
| 2026-05-08 07:41 | -34.19681 | 150.61767 | 15773 ft | 393 kts | 64° |
| 2026-05-08 07:42 | -34.18412 | 150.64586 | 15284 ft | 381 kts | 64° |
| 2026-05-08 07:42 | -34.17164 | 150.67361 | 14803 ft | 370 kts | 64° |
| 2026-05-08 07:42 | -34.15951 | 150.70056 | 14331 ft | 361 kts | 64° |
| 2026-05-08 07:42 | -34.14764 | 150.72695 | 13849 ft | 352 kts | 64° |
| 2026-05-08 07:43 | -34.13605 | 150.75269 | 13339 ft | 346 kts | 64° |
| 2026-05-08 07:43 | -34.12450 | 150.77836 | 12811 ft | 347 kts | 64° |
| 2026-05-08 07:43 | -34.11303 | 150.80380 | 12301 ft | 342 kts | 65° |
| 2026-05-08 07:43 | -34.10188 | 150.82850 | 11820 ft | 339 kts | 64° |
| 2026-05-08 07:44 | -34.09056 | 150.85360 | 11341 ft | 340 kts | 65° |
| 2026-05-08 07:44 | -34.07924 | 150.87871 | 10850 ft | 341 kts | 65° |
| 2026-05-08 07:44 | -34.06796 | 150.90382 | 10371 ft | 341 kts | 65° |
| 2026-05-08 07:44 | -34.05652 | 150.92887 | 9885 ft | 341 kts | 61° |
| 2026-05-08 07:45 | -34.04060 | 150.95005 | 9350 ft | 344 kts | 37° |
| 2026-05-08 07:45 | -34.01927 | 150.96270 | 8832 ft | 342 kts | 13° |
| 2026-05-08 07:45 | -33.99586 | 150.96487 | 8326 ft | 337 kts | 351° |
| 2026-05-08 07:45 | -33.97277 | 150.96048 | 7823 ft | 335 kts | 348° |
| 2026-05-08 07:46 | -33.94987 | 150.95575 | 7332 ft | 334 kts | 348° |
| 2026-05-08 07:46 | -33.92696 | 150.95089 | 6891 ft | 331 kts | 348° |
| 2026-05-08 07:46 | -33.90444 | 150.94606 | 6544 ft | 326 kts | 348° |
| 2026-05-08 07:46 | -33.88229 | 150.94128 | 6172 ft | 319 kts | 347° |
| 2026-05-08 07:47 | -33.86087 | 150.93665 | 5818 ft | 307 kts | 347° |
| 2026-05-08 07:47 | -33.84019 | 150.93226 | 5461 ft | 296 kts | 347° |
| 2026-05-08 07:47 | -33.82020 | 150.92804 | 5102 ft | 288 kts | 347° |
| 2026-05-08 07:47 | -33.80062 | 150.92390 | 4752 ft | 285 kts | 347° |
| 2026-05-08 07:48 | -33.78130 | 150.91982 | 4387 ft | 278 kts | 348° |
| 2026-05-08 07:48 | -33.76226 | 150.91949 | 4029 ft | 273 kts | 12° |
| 2026-05-08 07:48 | -33.74553 | 150.92909 | 3691 ft | 263 kts | 43° |
| 2026-05-08 07:48 | -33.73509 | 150.94615 | 3326 ft | 248 kts | 75° |
| 2026-05-08 07:49 | -33.73081 | 150.96588 | 3165 ft | 250 kts | 82° |
| 2026-05-08 07:49 | -33.72718 | 150.98592 | 3126 ft | 237 kts | 83° |
| 2026-05-08 07:49 | -33.72374 | 151.00434 | 3144 ft | 214 kts | 83° |
| 2026-05-08 07:49 | -33.72048 | 151.02125 | 3135 ft | 209 kts | 83° |
| 2026-05-08 07:50 | -33.71724 | 151.03821 | 3130 ft | 207 kts | 83° |
| 2026-05-08 07:50 | -33.71463 | 151.05521 | 3139 ft | 207 kts | 92° |
| 2026-05-08 07:50 | -33.71605 | 151.07188 | 3136 ft | 198 kts | 110° |
| 2026-05-08 07:50 | -33.72146 | 151.08650 | 3136 ft | 190 kts | 128° |
| 2026-05-08 07:51 | -33.72771 | 151.09954 | 3130 ft | 176 kts | 129° |
| 2026-05-08 07:51 | -33.73386 | 151.11242 | 3124 ft | 176 kts | 134° |
| 2026-05-08 07:51 | -33.74294 | 151.12043 | 3131 ft | 160 kts | 167° |
| 2026-05-08 07:51 | -33.75344 | 151.12447 | 3137 ft | 154 kts | 171° |
| 2026-05-08 07:52 | -33.76390 | 151.12770 | 3128 ft | 158 kts | 173° |
| 2026-05-08 07:52 | -33.77447 | 151.13062 | 3126 ft | 155 kts | 174° |
| 2026-05-08 07:52 | -33.78501 | 151.13344 | 3069 ft | 156 kts | 174° |
| 2026-05-08 07:52 | -33.79500 | 151.13619 | 2780 ft | 140 kts | 176° |
| 2026-05-08 07:53 | -33.80395 | 151.13871 | 2443 ft | 130 kts | 176° |
| 2026-05-08 07:53 | -33.81300 | 151.14114 | 2109 ft | 134 kts | 177° |
| 2026-05-08 07:53 | -33.82219 | 151.14362 | 1844 ft | 138 kts | 177° |
| 2026-05-08 07:53 | -33.83163 | 151.14621 | 1699 ft | 139 kts | 178° |
| 2026-05-08 07:54 | -33.84087 | 151.14871 | 1551 ft | 133 kts | 178° |
| 2026-05-08 07:54 | -33.85017 | 151.15113 | 1394 ft | 140 kts | 174° |
| 2026-05-08 07:54 | -33.85966 | 151.15383 | 1235 ft | 140 kts | 173° |
| 2026-05-08 07:54 | -33.86925 | 151.15660 | 1094 ft | 141 kts | 172° |
| 2026-05-08 07:55 | -33.87883 | 151.15939 | 999 ft | 142 kts | 175° |
| 2026-05-08 07:55 | -33.88855 | 151.16138 | 854 ft | 142 kts | 181° |
| 2026-05-08 07:55 | -33.89825 | 151.16333 | 702 ft | 145 kts | 174° |
| 2026-05-08 07:55 | -33.90815 | 151.16610 | 518 ft | 146 kts | 173° |
| 2026-05-08 07:56 | -33.91802 | 151.16873 | 289 ft | 144 kts | 175° |
| 2026-05-08 07:56 | -33.92767 | 151.17114 | 111 ft | 138 kts | 174° |
| 2026-05-08 07:56 | -33.93679 | 151.17359 | 20 ft | 126 kts | 174° |
| 2026-05-08 07:56 | -33.94382 | 151.17527 | 27 ft | 74 kts | 169° |
| 2026-05-08 07:57 | -33.94686 | 151.17606 | 25 ft | 18 kts | 183° |
| 2026-05-08 07:57 | -33.94756 | 151.17501 | 26 ft | 0 kts | 284° |
| 2026-05-08 07:57 | -33.94753 | 151.17489 | 25 ft | 6 kts | 284° |
| 2026-05-08 07:58 | -33.94736 | 151.17409 | 24 ft | 13 kts | 283° |
| 2026-05-08 07:58 | -33.94737 | 151.17413 | 25 ft | 5 kts | 306° |
| 2026-05-08 07:58 | -33.94746 | 151.17424 | 28 ft | 0 kts | 352° |
| 2026-05-08 07:59 | -33.94717 | 151.17419 | 25 ft | 8 kts | 352° |
| 2026-05-08 07:59 | -33.94640 | 151.17396 | 28 ft | 14 kts | 348° |
| 2026-05-08 07:59 | -33.94518 | 151.17368 | 27 ft | 21 kts | 348° |
| 2026-05-08 07:59 | -33.94367 | 151.17328 | 28 ft | 23 kts | 347° |
| 2026-05-08 08:00 | -33.94206 | 151.17283 | 22 ft | 24 kts | 347° |
| 2026-05-08 08:00 | -33.94043 | 151.17235 | 21 ft | 24 kts | 344° |
| 2026-05-08 08:00 | -33.93964 | 151.17271 | 18 ft | 9 kts | 87° |
| 2026-05-08 08:00 | -33.93960 | 151.17287 | 18 ft | 0 kts | 72° |
| 2026-05-08 08:01 | -33.93957 | 151.17296 | 18 ft | 4 kts | 73° |
| 2026-05-08 08:01 | -33.93944 | 151.17360 | 17 ft | 12 kts | 75° |
| 2026-05-08 08:01 | -33.93911 | 151.17497 | 18 ft | 22 kts | 73° |
| 2026-05-08 08:01 | -33.93808 | 151.17562 | 20 ft | 16 kts | 312° |
| 2026-05-08 08:02 | -33.93771 | 151.17543 | 17 ft | 6 kts | 3° |
| 2026-05-08 08:02 | -33.93715 | 151.17562 | 19 ft | 11 kts | 0° |
| 2026-05-08 08:02 | -33.93624 | 151.17540 | 17 ft | 15 kts | 346° |
| 2026-05-08 08:02 | -33.93512 | 151.17509 | 18 ft | 17 kts | 348° |
| 2026-05-08 08:03 | -33.93395 | 151.17513 | 22 ft | 17 kts | 25° |
| 2026-05-08 08:03 | -33.93352 | 151.17589 | 29 ft | 8 kts | 25° |
| 2026-05-08 08:03 | -33.93333 | 151.17593 | 30 ft | 2 kts | 5° |
| 2026-05-08 08:03 | -33.93320 | 151.17592 | 30 ft | 1 kts | 356° |
| 2026-05-08 08:04 | -33.93308 | 151.17592 | 30 ft | 2 kts | 2° |
| 2026-05-08 08:04 | -33.93302 | 151.17593 | 30 ft | 2 kts | 11° |
| 2026-05-08 08:04 | -33.93305 | 151.17596 | 30 ft | 1 kts | 53° |
| 2026-05-08 08:04 | -33.93307 | 151.17665 | 30 ft | 9 kts | 89° |
| 2026-05-08 08:05 | -33.93307 | 151.17679 | 30 ft | 0 kts | 89° |